< Typhoon 196020 1960 Season Typhoon 196022 >
Typhoon 196021 (JUDY)
General InformationTrack Information on Google Maps || Disaster Info.ResourceGoogle EarthGE AnimationAtom FeedGeoJSON
Detalied Best Track (Time Zone = UTC)
Year Month Day Hour Lat. Long. Pressure (hPa) Wind (kt) Class Image Chart
1960 9 23 18 22.0 153.0 1010 0 2 -- Chart
1960 9 24 00 21.8 152.0 1010 0 2 -- Chart
1960 9 24 06 21.7 151.0 1008 0 2 -- Chart
1960 9 24 12 22.0 150.0 1008 0 2 -- Chart
1960 9 24 18 22.5 149.5 1006 0 2 -- Chart
1960 9 25 00 23.0 149.0 1006 0 2 -- Chart
1960 9 25 06 23.4 149.0 1006 0 2 -- Chart
1960 9 25 12 23.7 149.1 1006 0 2 -- Chart
1960 9 25 18 24.0 149.1 1006 0 2 -- Chart
1960 9 26 00 24.3 149.3 1006 0 2 -- Chart
1960 9 26 06 24.5 149.6 1006 0 2 -- Chart
1960 9 26 12 24.6 150.0 1006 0 2 -- Chart
1960 9 26 18 24.8 150.0 1008 0 2 -- Chart
1960 9 27 00 24.9 149.3 1010 0 2 -- Chart
1960 9 27 06 25.0 148.2 1008 0 2 -- Chart
1960 9 27 12 25.4 147.2 1010 0 2 -- Chart
1960 9 27 18 26.1 146.4 1008 0 2 -- Chart
1960 9 28 00 27.0 146.0 1008 0 2 -- Chart
1960 9 28 06 28.0 146.0 1008 0 2 -- Chart
1960 9 28 12 29.0 145.9 1008 0 2 -- Chart
1960 9 28 18 29.9 146.0 1004 0 2 -- Chart
1960 9 29 00 30.8 146.2 1004 0 2 -- Chart
1960 9 29 06 31.6 146.7 1004 0 2 -- Chart
1960 9 29 12 32.3 147.0 1002 0 2 -- Chart
1960 9 29 18 33.2 147.6 990 0 9 -- Chart
1960 9 30 00 34.0 148.0 980 0 9 -- Chart
1960 9 30 06 34.1 147.2 980 0 9 -- Chart
1960 9 30 12 34.6 147.0 980 0 9 -- Chart
1960 9 30 18 35.5 147.0 980 0 9 -- Chart
1960 10 1 00 36.5 147.0 980 0 9 -- Chart
1960 10 1 06 38.0 147.4 985 0 9 -- Chart
1960 10 1 12 40.3 148.7 990 0 9 -- Chart
1960 10 1 18 42.5 150.8 994 0 6 -- Chart
1960 10 2 00 44.2 153.4 996 0 6 -- Chart
1960 10 2 06 47.0 158.0 994 0 6 -- Chart
Japan Meteorological Agency Best Track Data | Correction Date : 2013-03-19
< Typhoon 196020 1960 Season Typhoon 196022 >

Help